createdAt,value
2022-12-19T00:01:33.790Z,101303.25
2022-12-19T00:04:05.460Z,101304.66
2022-12-19T00:06:35.798Z,101316.44
2022-12-19T00:09:02.460Z,101311.47
2022-12-19T00:11:29.763Z,101312.06
2022-12-19T00:13:56.233Z,101311.81
2022-12-19T00:16:25.670Z,101304.31
2022-12-19T00:18:55.286Z,101294.72
2022-12-19T00:21:24.674Z,101293.47
2022-12-19T00:23:52.176Z,101287.63
2022-12-19T00:26:20.201Z,101266.94
2022-12-19T00:28:49.033Z,101270.28
2022-12-19T00:31:17.103Z,101265.72
2022-12-19T00:33:44.372Z,101268.22
2022-12-19T00:36:13.573Z,101263.09
2022-12-19T00:38:42.585Z,101251.22
2022-12-19T00:41:13.340Z,101251.75
2022-12-19T00:43:40.245Z,101251.03
2022-12-19T00:46:09.162Z,101259.91
2022-12-19T00:48:36.898Z,101269.03
2022-12-19T00:51:21.161Z,101264.28
2022-12-19T00:53:49.220Z,101260.97
2022-12-19T00:56:18.577Z,101275.28
2022-12-19T00:58:47.338Z,101268.78
2022-12-19T01:01:36.057Z,101271.34
2022-12-19T01:04:27.752Z,101268.66
2022-12-19T01:06:51.193Z,101262.47
2022-12-19T01:09:18.249Z,101260.22
2022-12-19T01:12:03.554Z,101248.44
2022-12-19T01:14:30.034Z,101263.09
2022-12-19T01:16:56.576Z,101262.84
2022-12-19T01:19:23.036Z,101261.13
2022-12-19T01:21:49.564Z,101270.00
2022-12-19T01:24:19.159Z,101255.16
2022-12-19T01:26:46.408Z,101254.91
2022-12-19T01:29:13.070Z,101254.72
2022-12-19T01:31:39.561Z,101257.81
2022-12-19T01:34:06.033Z,101253.16
2022-12-19T01:36:32.497Z,101243.13
2022-12-19T01:38:58.888Z,101242.72
2022-12-19T01:41:25.686Z,101239.19
2022-12-19T01:44:02.200Z,101235.84
2022-12-19T01:46:47.575Z,101235.91
2022-12-19T01:49:32.030Z,101239.06
2022-12-19T01:52:05.837Z,101233.44
2022-12-19T01:54:38.500Z,101240.47
2022-12-19T01:57:08.798Z,101239.00
2022-12-19T01:59:43.714Z,101243.38
2022-12-19T02:02:25.385Z,101246.06
2022-12-19T02:04:51.942Z,101243.66
2022-12-19T02:07:20.303Z,101245.25
2022-12-19T02:09:53.014Z,101235.81
2022-12-19T02:12:25.707Z,101227.09
2022-12-19T02:14:53.386Z,101228.91
2022-12-19T02:17:51.339Z,101222.91
2022-12-19T02:21:05.719Z,101215.88
2022-12-19T02:23:50.447Z,101215.94
2022-12-19T02:26:38.558Z,101214.84
2022-12-19T02:29:26.776Z,101212.50
2022-12-19T02:32:07.220Z,101216.97
2022-12-19T02:34:44.658Z,101211.00
2022-12-19T02:37:23.296Z,101215.38
2022-12-19T02:39:55.215Z,101214.31
2022-12-19T02:42:30.609Z,101210.22
2022-12-19T02:45:01.190Z,101208.41
2022-12-19T02:47:29.966Z,101205.84
2022-12-19T02:49:56.606Z,101202.25
2022-12-19T02:52:23.000Z,101195.41
2022-12-19T02:54:52.292Z,101183.31
2022-12-19T02:57:28.261Z,101186.16
2022-12-19T03:00:12.159Z,101193.31
2022-12-19T03:03:03.095Z,101207.28
2022-12-19T03:06:02.067Z,101206.50
2022-12-19T03:08:46.775Z,101207.28
2022-12-19T03:11:15.383Z,101196.72
2022-12-19T03:14:10.742Z,101195.47
2022-12-19T03:16:38.072Z,101190.50
2022-12-19T03:19:11.238Z,101191.66
2022-12-19T03:21:49.437Z,101193.38
2022-12-19T03:24:17.851Z,101196.97
2022-12-19T03:26:47.003Z,101209.06
2022-12-19T03:29:38.247Z,101203.06
2022-12-19T03:32:09.031Z,101198.97
2022-12-19T03:34:43.163Z,101187.28
2022-12-19T03:37:15.473Z,101196.06
2022-12-19T03:39:45.530Z,101192.38
2022-12-19T03:42:32.504Z,101192.94
2022-12-19T03:45:02.223Z,101191.13
2022-12-19T03:47:38.242Z,101185.13
2022-12-19T03:50:05.243Z,101196.31
2022-12-19T03:52:53.347Z,101191.19
2022-12-19T03:55:29.762Z,101190.84
2022-12-19T03:58:01.816Z,101194.91
2022-12-19T04:00:31.092Z,101196.81
2022-12-19T04:02:59.276Z,101182.59
2022-12-19T04:05:28.297Z,101190.00
2022-12-19T04:08:02.692Z,101173.75
2022-12-19T04:10:30.100Z,101174.16
2022-12-19T04:13:20.155Z,101183.00
2022-12-19T04:15:58.623Z,101177.22
2022-12-19T04:18:26.083Z,101165.63
2022-12-19T04:21:01.156Z,101161.97
2022-12-19T04:23:33.337Z,101146.13
2022-12-19T04:26:05.103Z,101159.50
2022-12-19T04:28:48.496Z,101160.50
2022-12-19T04:31:16.962Z,101150.78
2022-12-19T04:33:43.537Z,101154.53
2022-12-19T04:36:11.019Z,101158.84
2022-12-19T04:38:37.623Z,101149.50
2022-12-19T04:41:04.134Z,101144.13
2022-12-19T04:43:30.661Z,101142.47
2022-12-19T04:45:57.809Z,101144.38
2022-12-19T04:48:25.212Z,101148.25
2022-12-19T04:50:51.838Z,101151.66
2022-12-19T04:53:18.223Z,101157.56
2022-12-19T04:55:44.697Z,101149.84
2022-12-19T04:58:11.517Z,101148.28
2022-12-19T05:00:38.281Z,101142.97
2022-12-19T05:03:04.856Z,101141.16
2022-12-19T05:05:31.510Z,101129.59
2022-12-19T05:07:58.042Z,101132.16
2022-12-19T05:10:24.732Z,101127.59
2022-12-19T05:12:51.256Z,101132.25
2022-12-19T05:15:17.696Z,101119.44
2022-12-19T05:17:44.100Z,101124.06
2022-12-19T05:20:11.042Z,101122.13
2022-12-19T05:22:37.488Z,101121.38
2022-12-19T05:25:04.257Z,101120.03
2022-12-19T05:27:30.856Z,101121.50
2022-12-19T05:29:57.350Z,101116.50
2022-12-19T05:32:23.799Z,101124.25
2022-12-19T05:34:50.193Z,101126.06
2022-12-19T05:37:16.665Z,101122.00
2022-12-19T05:39:43.081Z,101124.69
2022-12-19T05:42:12.261Z,101124.13
2022-12-19T05:44:39.022Z,101117.81
2022-12-19T05:47:05.590Z,101122.59
2022-12-19T05:49:32.079Z,101114.97
2022-12-19T05:51:58.525Z,101122.56
2022-12-19T05:54:25.894Z,101115.81
2022-12-19T05:56:52.350Z,101129.94
2022-12-19T05:59:18.826Z,101138.22
2022-12-19T06:01:45.336Z,101143.50
2022-12-19T06:04:11.966Z,101137.91
2022-12-19T06:06:38.463Z,101133.16
2022-12-19T06:09:04.932Z,101130.91
2022-12-19T06:11:31.414Z,101134.31
2022-12-19T06:13:57.880Z,101134.81
2022-12-19T06:16:24.647Z,101140.00
2022-12-19T06:18:51.445Z,101143.03
2022-12-19T06:21:22.850Z,101155.22
2022-12-19T06:23:49.302Z,101154.13
2022-12-19T06:26:19.766Z,101157.19
2022-12-19T06:28:48.301Z,101146.22
2022-12-19T06:31:15.728Z,101136.34
2022-12-19T06:33:42.270Z,101118.97
2022-12-19T06:36:17.123Z,101131.31
2022-12-19T06:38:43.611Z,101117.19
2022-12-19T06:41:29.446Z,101127.44
2022-12-19T06:44:03.508Z,101125.00
2022-12-19T06:46:30.770Z,101128.66
2022-12-19T06:48:57.277Z,101128.72
2022-12-19T06:51:23.894Z,101128.09
2022-12-19T06:53:50.626Z,101127.22
2022-12-19T06:56:18.257Z,101117.22
2022-12-19T06:58:44.811Z,101118.09
2022-12-19T07:01:19.445Z,101117.91
2022-12-19T07:03:47.511Z,101121.25
2022-12-19T07:06:14.185Z,101125.06
2022-12-19T07:08:40.704Z,101132.13
2022-12-19T07:11:07.174Z,101118.38
2022-12-19T07:13:33.676Z,101115.81
2022-12-19T07:16:02.379Z,101101.53
2022-12-19T07:18:32.053Z,101106.88
2022-12-19T07:20:58.509Z,101110.75
2022-12-19T07:23:25.033Z,101117.44
2022-12-19T07:25:51.491Z,101104.53
2022-12-19T07:28:18.411Z,101110.66
2022-12-19T07:30:45.172Z,101124.72
2022-12-19T07:33:13.617Z,101126.41
2022-12-19T07:35:43.526Z,101114.31
2022-12-19T07:38:10.014Z,101112.44
2022-12-19T07:40:36.550Z,101120.59
2022-12-19T07:43:05.630Z,101122.09
2022-12-19T07:45:33.023Z,101127.38
2022-12-19T07:48:03.620Z,101129.28
2022-12-19T07:50:30.526Z,101129.38
2022-12-19T07:52:58.261Z,101129.34
2022-12-19T07:55:26.105Z,101119.59
2022-12-19T07:57:53.601Z,101118.56
2022-12-19T08:00:20.288Z,101132.56
2022-12-19T08:02:47.661Z,101131.72
2022-12-19T08:05:14.272Z,101129.25
2022-12-19T08:07:41.123Z,101135.44
2022-12-19T08:10:08.482Z,101129.47
2022-12-19T08:12:34.986Z,101130.38
2022-12-19T08:15:01.445Z,101129.66
2022-12-19T08:17:27.937Z,101127.00
2022-12-19T08:19:54.401Z,101129.69
2022-12-19T08:22:20.838Z,101132.31
2022-12-19T08:24:47.268Z,101130.53
2022-12-19T08:27:15.735Z,101127.88
2022-12-19T08:29:42.164Z,101123.50
2022-12-19T08:32:08.547Z,101118.09
2022-12-19T08:34:35.543Z,101114.59
2022-12-19T08:37:01.981Z,101123.63
2022-12-19T08:39:28.453Z,101125.41
2022-12-19T08:41:54.845Z,101123.75
2022-12-19T08:44:21.352Z,101116.69
2022-12-19T08:46:50.241Z,101115.81
2022-12-19T08:49:17.331Z,101114.16
2022-12-19T08:51:43.746Z,101109.75
2022-12-19T08:54:11.598Z,101099.28
2022-12-19T08:56:41.965Z,101102.25
2022-12-19T08:59:15.862Z,101105.56
2022-12-19T09:01:52.195Z,101091.38
2022-12-19T09:05:44.314Z,101098.47
2022-12-19T09:07:05.199Z,101095.09
2022-12-19T09:09:32.710Z,101100.53
2022-12-19T09:11:59.285Z,101099.97
2022-12-19T09:14:25.685Z,101101.34
2022-12-19T09:16:52.237Z,101115.19
2022-12-19T09:19:18.772Z,101110.94
2022-12-19T09:21:45.399Z,101114.03
2022-12-19T09:24:11.843Z,101108.50
2022-12-19T09:26:39.353Z,101109.56
2022-12-19T09:29:06.808Z,101111.09
2022-12-19T09:31:47.091Z,101109.34
2022-12-19T09:34:13.554Z,101111.22
2022-12-19T09:36:39.941Z,101108.56
2022-12-19T09:39:06.434Z,101099.50
2022-12-19T09:41:41.969Z,101112.03
2022-12-19T09:44:13.380Z,101118.88
2022-12-19T09:46:47.559Z,101105.47
2022-12-19T09:49:23.829Z,101095.75
2022-12-19T09:52:00.980Z,101090.41
2022-12-19T09:54:35.204Z,101089.47
2022-12-19T09:57:06.192Z,101081.66
2022-12-19T09:59:49.380Z,101083.53
2022-12-19T10:02:35.319Z,101080.00
2022-12-19T10:05:20.367Z,101084.25
2022-12-19T10:08:09.474Z,101093.31
2022-12-19T10:12:40.846Z,101085.63
2022-12-19T10:13:59.005Z,101075.63
2022-12-19T10:17:08.582Z,101086.22
2022-12-19T10:20:16.129Z,101066.63
2022-12-19T10:22:56.303Z,101073.47
2022-12-19T10:25:41.259Z,101076.78
2022-12-19T10:28:30.653Z,101066.84
2022-12-19T10:31:22.713Z,101060.34
2022-12-19T10:34:11.925Z,101063.81
2022-12-19T10:37:12.935Z,101061.03
2022-12-19T10:39:36.167Z,101057.69
2022-12-19T10:42:15.825Z,101051.28
2022-12-19T10:44:44.626Z,101048.31
2022-12-19T10:47:16.318Z,101052.56
2022-12-19T10:49:42.799Z,101049.16
2022-12-19T10:52:12.481Z,101051.13
2022-12-19T10:54:41.754Z,101052.78
2022-12-19T10:57:28.975Z,101046.84
2022-12-19T11:00:00.317Z,101028.69
2022-12-19T11:02:32.796Z,101030.91
2022-12-19T11:04:59.479Z,101033.41
2022-12-19T11:07:26.005Z,101037.03
2022-12-19T11:10:41.262Z,101039.00
2022-12-19T11:17:09.989Z,101038.78
2022-12-19T11:20:09.377Z,101029.16
2022-12-19T11:28:41.122Z,101013.53
2022-12-19T11:29:16.516Z,101020.38
2022-12-19T11:30:41.453Z,101019.50
2022-12-19T11:30:47.662Z,101016.00
2022-12-19T11:33:18.639Z,101033.13
2022-12-19T11:35:53.961Z,101028.25
2022-12-19T11:38:44.460Z,101025.19
2022-12-19T11:41:31.195Z,101020.94
2022-12-19T11:44:28.040Z,101010.53
2022-12-19T11:47:12.328Z,101009.50
2022-12-19T11:49:44.845Z,101022.44
2022-12-19T11:55:47.380Z,100993.03
2022-12-19T11:58:14.358Z,100991.13
2022-12-19T12:00:51.069Z,100992.03
2022-12-19T12:03:29.227Z,100986.91
2022-12-19T12:05:58.397Z,100992.94
2022-12-19T12:12:09.532Z,100991.22
2022-12-19T12:21:02.816Z,100987.16
2022-12-19T12:25:06.115Z,100974.69
2022-12-19T12:31:12.430Z,100975.78
2022-12-19T12:31:13.775Z,100989.66
2022-12-19T12:31:15.619Z,100971.16
2022-12-19T12:31:43.274Z,100976.63
2022-12-19T12:31:51.728Z,100972.25
2022-12-19T12:35:38.559Z,100969.66
2022-12-19T12:40:14.376Z,100960.19
2022-12-19T12:43:05.560Z,100965.41
2022-12-19T12:45:44.816Z,100961.88
2022-12-19T12:48:38.371Z,100947.03
2022-12-19T12:51:07.412Z,100947.94
2022-12-19T12:53:40.926Z,100943.75
2022-12-19T12:56:10.790Z,100945.44
2022-12-19T12:58:50.132Z,100947.25
2022-12-19T13:01:30.001Z,100936.59
2022-12-19T13:04:01.199Z,100927.13
2022-12-19T13:06:50.800Z,100938.75
2022-12-19T13:09:26.187Z,100935.25
2022-12-19T13:12:36.792Z,100939.44
2022-12-19T13:15:22.010Z,100940.22
2022-12-19T13:17:48.384Z,100934.94
2022-12-19T13:20:18.967Z,100935.72
2022-12-19T13:23:03.332Z,100937.41
2022-12-19T13:25:32.587Z,100941.84
2022-12-19T13:28:36.003Z,100945.31
2022-12-19T13:31:20.550Z,100924.38
2022-12-19T13:33:51.659Z,100933.09
2022-12-19T13:39:48.336Z,100939.31
2022-12-19T13:40:15.158Z,100928.09
2022-12-19T13:43:29.487Z,100928.03
2022-12-19T13:46:06.206Z,100931.44
2022-12-19T13:48:37.506Z,100936.72
2022-12-19T13:51:07.211Z,100935.72
2022-12-19T13:53:34.817Z,100936.56
2022-12-19T13:56:11.461Z,100938.44
2022-12-19T13:58:47.296Z,100940.91
2022-12-19T14:01:35.182Z,100941.72
2022-12-19T14:04:09.192Z,100943.44
2022-12-19T14:06:44.366Z,100953.97
2022-12-19T14:11:25.742Z,100951.28
2022-12-19T14:13:48.012Z,100938.19
2022-12-19T14:15:52.329Z,100933.81
2022-12-19T14:18:42.199Z,100932.09
2022-12-19T14:22:05.554Z,100942.56
2022-12-19T14:24:09.687Z,100946.94
2022-12-19T14:28:23.379Z,100946.97
2022-12-19T14:30:26.063Z,100939.88
2022-12-19T14:33:40.779Z,100928.63
2022-12-19T14:36:05.844Z,100920.66
2022-12-19T14:39:22.085Z,100927.56
2022-12-19T14:41:08.212Z,100930.16
2022-12-19T14:43:57.608Z,100925.75
2022-12-19T14:51:51.418Z,100929.25
2022-12-19T14:54:01.416Z,100924.84
2022-12-19T14:54:48.167Z,100925.75
2022-12-19T14:56:08.435Z,100926.50
2022-12-19T14:58:53.360Z,100929.09
2022-12-19T15:01:31.866Z,100936.03
2022-12-19T15:04:49.313Z,100944.09
2022-12-19T15:07:07.862Z,100931.66
2022-12-19T15:11:08.477Z,100925.47
2022-12-19T15:14:52.222Z,100927.00
2022-12-19T15:16:01.564Z,100924.25
2022-12-19T15:18:39.733Z,100927.72
2022-12-19T15:21:14.432Z,100929.41
2022-12-19T15:23:43.457Z,100926.75
2022-12-19T15:26:19.935Z,100916.31
2022-12-19T15:28:54.731Z,100908.28
2022-12-19T15:31:34.511Z,100895.91
2022-12-19T15:34:34.914Z,100901.16
2022-12-19T15:37:02.802Z,100905.19
2022-12-19T15:39:32.101Z,100906.41
2022-12-19T15:42:00.129Z,100895.78
2022-12-19T15:44:32.211Z,100888.84
2022-12-19T15:47:00.160Z,100899.22
2022-12-19T15:49:26.607Z,100910.59
2022-12-19T15:51:53.416Z,100910.69
2022-12-19T15:57:33.676Z,100893.00
2022-12-19T16:00:03.034Z,100898.25
2022-12-19T16:03:04.576Z,100895.66
2022-12-19T16:05:20.202Z,100905.28
2022-12-19T16:07:47.472Z,100903.63
2022-12-19T16:10:15.119Z,100897.56
2022-12-19T16:12:43.061Z,100887.81
2022-12-19T16:15:25.348Z,100882.53
2022-12-19T16:17:55.586Z,100882.06
2022-12-19T16:20:26.884Z,100888.38
2022-12-19T16:22:53.587Z,100881.50
2022-12-19T16:25:20.577Z,100868.34
2022-12-19T16:27:54.974Z,100874.59
2022-12-19T16:30:23.777Z,100871.97
2022-12-19T16:32:50.787Z,100880.81
2022-12-19T16:35:40.317Z,100871.19
2022-12-19T16:38:08.868Z,100862.34
2022-12-19T16:40:35.280Z,100857.03
2022-12-19T16:43:28.702Z,100862.31
2022-12-19T16:46:00.616Z,100871.06
2022-12-19T16:48:30.258Z,100873.91
2022-12-19T16:50:57.799Z,100867.63
2022-12-19T16:53:24.315Z,100872.09
2022-12-19T16:55:50.917Z,100866.91
2022-12-19T16:58:23.389Z,100865.84
2022-12-19T17:00:52.944Z,100871.19
2022-12-19T17:03:25.406Z,100871.09
2022-12-19T17:05:51.876Z,100851.59
2022-12-19T17:08:19.156Z,100852.25
2022-12-19T17:10:46.345Z,100863.75
2022-12-19T17:13:15.526Z,100866.44
2022-12-19T17:15:43.796Z,100878.88
2022-12-19T17:18:33.037Z,100867.50
2022-12-19T17:20:59.821Z,100883.22
2022-12-19T17:23:29.298Z,100877.09
2022-12-19T17:25:56.167Z,100876.41
2022-12-19T17:28:22.888Z,100876.28
2022-12-19T17:30:52.461Z,100868.44
2022-12-19T17:33:22.116Z,100869.25
2022-12-19T17:35:48.767Z,100877.59
2022-12-19T17:38:16.977Z,100885.56
2022-12-19T17:40:44.734Z,100877.69
2022-12-19T17:43:14.254Z,100879.47
2022-12-19T17:45:41.377Z,100872.50
2022-12-19T17:48:26.271Z,100860.28
2022-12-19T17:50:53.785Z,100861.94
2022-12-19T17:53:20.793Z,100855.94
2022-12-19T17:55:47.356Z,100856.84
2022-12-19T17:58:13.791Z,100847.44
2022-12-19T18:00:41.394Z,100854.34
2022-12-19T18:03:23.625Z,100864.97
2022-12-19T18:05:52.360Z,100875.09
2022-12-19T18:08:32.884Z,100869.63
2022-12-19T18:11:02.126Z,100858.09
2022-12-19T18:13:31.045Z,100860.63
2022-12-19T18:16:00.677Z,100868.72
2022-12-19T18:18:34.051Z,100872.19
2022-12-19T18:21:01.384Z,100859.72
2022-12-19T18:23:28.387Z,100856.25
2022-12-19T18:25:59.437Z,100856.06
2022-12-19T18:28:28.222Z,100855.06
2022-12-19T18:30:59.267Z,100862.06
2022-12-19T18:33:26.410Z,100851.63
2022-12-19T18:35:53.075Z,100858.56
2022-12-19T18:38:21.628Z,100856.91
2022-12-19T18:40:49.717Z,100853.41
2022-12-19T18:43:17.052Z,100841.31
2022-12-19T18:45:47.433Z,100842.16
2022-12-19T18:48:26.917Z,100864.13
2022-12-19T18:50:54.412Z,100855.47
2022-12-19T18:53:23.125Z,100849.72
2022-12-19T18:55:51.501Z,100841.91
2022-12-19T18:58:18.650Z,100837.69
2022-12-19T19:00:45.521Z,100836.78
2022-12-19T19:03:15.947Z,100837.88
2022-12-19T19:05:43.037Z,100837.19
2022-12-19T19:08:22.005Z,100849.25
2022-12-19T19:10:50.556Z,100845.72
2022-12-19T19:13:18.661Z,100852.50
2022-12-19T19:15:55.122Z,100856.16
2022-12-19T19:18:29.729Z,100850.75
2022-12-19T19:21:01.065Z,100847.16
2022-12-19T19:23:33.407Z,100850.72
2022-12-19T19:25:59.954Z,100839.44
2022-12-19T19:28:29.032Z,100835.06
2022-12-19T19:30:56.522Z,100828.53
2022-12-19T19:33:30.474Z,100833.91
2022-12-19T19:36:04.674Z,100850.44
2022-12-19T19:38:36.658Z,100854.84
2022-12-19T19:41:03.367Z,100848.50
2022-12-19T19:43:33.944Z,100845.72
2022-12-19T19:46:01.667Z,100840.66
2022-12-19T19:48:28.161Z,100844.00
2022-12-19T19:50:54.591Z,100844.88
2022-12-19T19:53:21.782Z,100837.91
2022-12-19T19:56:00.481Z,100837.97
2022-12-19T19:58:27.866Z,100842.47
2022-12-19T20:00:54.639Z,100833.75
2022-12-19T20:03:23.316Z,100832.38
2022-12-19T20:05:50.928Z,100843.38
2022-12-19T20:08:17.455Z,100841.41
2022-12-19T20:10:43.978Z,100854.78
2022-12-19T20:13:11.120Z,100851.50
2022-12-19T20:15:40.681Z,100858.44
2022-12-19T20:18:09.536Z,100851.25
2022-12-19T20:20:36.059Z,100863.44
2022-12-19T20:23:05.144Z,100847.72
2022-12-19T20:25:32.546Z,100851.88
2022-12-19T20:27:59.051Z,100847.47
2022-12-19T20:30:25.607Z,100842.78
2022-12-19T20:32:52.103Z,100845.44
2022-12-19T20:35:18.560Z,100839.41
2022-12-19T20:37:45.072Z,100835.69
2022-12-19T20:40:11.902Z,100841.91
2022-12-19T20:42:38.397Z,100849.03
2022-12-19T20:45:05.219Z,100849.28
2022-12-19T20:47:31.671Z,100861.63
2022-12-19T20:49:58.131Z,100859.00
2022-12-19T20:52:24.627Z,100861.66
2022-12-19T20:54:51.021Z,100863.41
2022-12-19T20:57:17.486Z,100862.59
2022-12-19T20:59:43.898Z,100859.16
2022-12-19T21:02:11.336Z,100861.72
2022-12-19T21:04:38.048Z,100863.69
2022-12-19T21:07:04.546Z,100860.88
2022-12-19T21:09:31.114Z,100863.34
2022-12-19T21:11:57.553Z,100864.88
2022-12-19T21:14:24.015Z,100865.72
2022-12-19T21:16:50.470Z,100868.28
2022-12-19T21:19:17.034Z,100857.72
2022-12-19T21:21:43.516Z,100858.16
2022-12-19T21:24:10.463Z,100867.78
2022-12-19T21:26:36.910Z,100873.28
2022-12-19T21:29:03.808Z,100872.25
2022-12-19T21:31:30.529Z,100877.47
2022-12-19T21:33:59.300Z,100872.97
2022-12-19T21:36:26.933Z,100865.81
2022-12-19T21:38:56.341Z,100873.81
2022-12-19T21:41:23.002Z,100879.00
2022-12-19T21:43:53.446Z,100882.47
2022-12-19T21:46:22.595Z,100877.34
2022-12-19T21:48:51.294Z,100870.94
2022-12-19T21:51:20.523Z,100869.22
2022-12-19T21:53:47.771Z,100878.84
2022-12-19T21:56:34.364Z,100876.97
2022-12-19T21:59:03.909Z,100876.97
2022-12-19T22:01:30.994Z,100876.13
2022-12-19T22:03:59.969Z,100885.00
2022-12-19T22:06:30.058Z,100891.97
2022-12-19T22:08:56.740Z,100884.03
2022-12-19T22:11:23.635Z,100871.00
2022-12-19T22:13:50.852Z,100883.31
2022-12-19T22:16:17.608Z,100878.09
2022-12-19T22:18:44.656Z,100870.22
2022-12-19T22:21:13.333Z,100872.22
2022-12-19T22:23:40.220Z,100871.31
2022-12-19T22:26:13.200Z,100871.31
2022-12-19T22:28:43.400Z,100860.94
2022-12-19T22:31:33.036Z,100852.34
2022-12-19T22:34:05.373Z,100853.28
2022-12-19T22:36:33.833Z,100847.06
2022-12-19T22:39:03.819Z,100830.38
2022-12-19T22:41:30.259Z,100831.28
2022-12-19T22:43:56.829Z,100833.28
2022-12-19T22:46:26.433Z,100836.69
2022-12-19T22:48:55.328Z,100831.53
2022-12-19T22:51:21.844Z,100839.66
2022-12-19T22:53:48.468Z,100839.84
2022-12-19T22:56:18.544Z,100854.50
2022-12-19T22:58:47.516Z,100841.44
2022-12-19T23:01:18.423Z,100838.13
2022-12-19T23:03:46.829Z,100843.25
2022-12-19T23:06:14.211Z,100848.66
2022-12-19T23:08:41.212Z,100851.28
2022-12-19T23:11:11.926Z,100849.63
2022-12-19T23:13:39.627Z,100848.75
2022-12-19T23:16:06.674Z,100846.19
2022-12-19T23:18:33.421Z,100840.03
2022-12-19T23:21:09.153Z,100838.22
2022-12-19T23:23:40.024Z,100832.09
2022-12-19T23:26:15.168Z,100843.44
2022-12-19T23:28:42.782Z,100829.38
2022-12-19T23:31:12.077Z,100831.97
2022-12-19T23:33:39.009Z,100829.41
2022-12-19T23:36:06.338Z,100821.53
2022-12-19T23:38:33.543Z,100820.63
2022-12-19T23:41:01.749Z,100803.25
2022-12-19T23:43:29.607Z,100798.94
2022-12-19T23:45:56.321Z,100797.16
2022-12-19T23:48:26.863Z,100792.84
2022-12-19T23:51:00.900Z,100795.38
2022-12-19T23:53:28.261Z,100792.94
2022-12-19T23:55:54.794Z,100794.97
2022-12-19T23:58:24.607Z,100792.34
